• Join FlightAware (Why Join?)
  • Login
  • US Flag 
11:45PM EDT


 

Airport Tracker/Info


-or-


 

Live Flight TrackerFlight Track Log ✈ IMG104 ✈ 31-Jul-2013 ✈ KPDK - KRDU

Flight Track Log - Related Links

Times and Time Zones

All times are in EDT time to prevent confusion due to time zone crossing. See the IMG104 flight status page for this flight to view local times or setup timezone preferences in your user account.

Time Position Orientation Groundspeed Altitude Reporting Facility
EDT Latitude Longitude Course Direction KTS MPH feet Rate Location/Type
04:55PM 33.8667 -84.2833 90° East 134 154 2,300  Level Atlanta TRACON
04:56PM 33.8667 -84.2333 90° East 136 157 3,300 900 Climbing Atlanta TRACON
04:57PM 33.8500 -84.1833 112° Southeast 154 177 4,100 720 Climbing Atlanta TRACON
04:58PM 33.8667 -84.1333 68° East 154 177 4,700 360 Climbing Atlanta TRACON
04:59PM 33.8667 -84.0833 90° East 174 200 4,900 60 Climbing Atlanta TRACON
05:00PM 33.8833 -84.0167 73° East 177 204 4,900  Level Atlanta TRACON
05:01PM 33.8667 -83.9816 90° East  Level FlightAware Approximate
05:01PM 33.8833 -83.9667 90° East 171 197 4,900  Level Atlanta TRACON
05:02PM 33.8833 -83.9000 90° East 171 197 4,900  Level Atlanta TRACON
05:03PM 33.9000 -83.8500 68° East 171 197 5,000  Climbing Atlanta TRACON
05:04PM 33.9000 -83.7833 90° East 171 197 5,000  Level Atlanta TRACON
05:05PM 33.9000 -83.7333 90° East 171 197 5,000  Level Atlanta TRACON
05:06PM 33.9167 -83.6833 68° East 167 192 5,000  Level Atlanta TRACON
05:07PM 33.9167 -83.6333 90° East 171 197 5,000  Level Atlanta TRACON
05:08PM 33.9167 -83.5667 90° East 169 194 5,000  Level Atlanta TRACON
05:09PM 33.9333 -83.5167 68° East 170 196 5,000  Level Atlanta TRACON
05:10PM 33.9333 -83.4667 90° East 167 192 5,000  Level Atlanta TRACON
05:11PM 33.9333 -83.4000 90° East 172 198 5,000  Level Atlanta TRACON
05:12PM 33.9500 -83.3500 68° East 170 196 5,000  Level Atlanta TRACON
05:13PM 33.9333 -83.2833 107° East 170 196 5,000  Level Atlanta TRACON
05:14PM 33.9333 -83.2333 90° East 172 198 5,000  Level Atlanta TRACON
05:15PM 33.9167 -83.1833 112° Southeast 171 197 5,000  Level Atlanta TRACON
05:16PM 33.9167 -83.1167 90° East 171 197 5,000  Level Atlanta TRACON
05:17PM 33.9000 -83.0667 112° Southeast 169 194 5,000  Level Atlanta TRACON
05:19PM 33.8798 -83.0059 112° Southeast  Level FlightAware Approximate
05:26PM 33.8038 -82.6468 99° East  Level FlightAware Approximate
05:27PM 33.7946 -82.5951 107° East  Level FlightAware Approximate
05:28PM 33.7819 -82.5443 107° East  Level FlightAware Approximate
05:29PM 33.7692 -82.4936 107° East  Level FlightAware Approximate
05:30PM 33.7585 -82.4422 103° East  Level FlightAware Approximate
05:31PM 33.7482 -82.3906 103° East  Level FlightAware Approximate
05:32PM 33.7379 -82.3391 103° East  Level FlightAware Approximate
05:33PM 33.7276 -82.2876 104° East  Level FlightAware Approximate
05:34PM 33.7173 -82.2361 104° East  Level FlightAware Approximate
05:35PM 33.7070 -82.1846 104° East  Level FlightAware Approximate
05:36PM 33.7023 -82.1328 81° East  Level FlightAware Approximate
05:37PM 33.7091 -82.0805 81° East  Level FlightAware Approximate
05:38PM 33.7159 -82.0282 81° East  Level FlightAware Approximate
05:39PM 33.7227 -81.9758 81° East  Level FlightAware Approximate
05:40PM 33.7295 -81.9235 81° East  Level FlightAware Approximate
05:41PM 33.7363 -81.8711 81° East  Level FlightAware Approximate
05:42PM 33.7430 -81.8187 81° East  Level FlightAware Approximate
05:43PM 33.7497 -81.7663 81° East  Level FlightAware Approximate
05:44PM 33.7564 -81.7140 81° East  Level FlightAware Approximate
05:45PM 33.7631 -81.6616 81° East  Level FlightAware Approximate
05:46PM 33.7702 -81.6093 80° East  Level FlightAware Approximate
05:47PM 33.7777 -81.5570 80° East  Level FlightAware Approximate
05:48PM 33.7853 -81.5048 80° East  Level FlightAware Approximate
05:49PM 33.7928 -81.4525 80° East  Level FlightAware Approximate
05:50PM 33.8003 -81.4003 80° East  Level FlightAware Approximate
05:51PM 33.8078 -81.3480 80° East  Level FlightAware Approximate
05:52PM 33.8152 -81.2958 80° East  Level FlightAware Approximate
05:53PM 33.8227 -81.2435 80° East  Level FlightAware Approximate
05:54PM 33.8301 -81.1912 80° East  Level FlightAware Approximate
05:55PM 33.8375 -81.1389 80° East  Level FlightAware Approximate
05:56PM 33.8449 -81.0866 80° East  Level FlightAware Approximate
05:57PM 33.8598 -81.0393 42° Northeast  Level FlightAware Approximate
05:58PM 33.8924 -81.0035 42° Northeast  Level FlightAware Approximate
05:59PM 33.9249 -80.9677 42° Northeast  Level FlightAware Approximate
06:00PM 33.9575 -80.9319 42° Northeast  Level FlightAware Approximate
06:01PM 33.9900 -80.8961 42° Northeast  Level FlightAware Approximate
06:02PM 34.0227 -80.8604 41° Northeast  Level FlightAware Approximate
06:03PM 34.0559 -80.8254 41° Northeast  Level FlightAware Approximate
06:04PM 34.0891 -80.7905 41° Northeast  Level FlightAware Approximate
06:05PM 34.1223 -80.7555 41° Northeast  Level FlightAware Approximate
06:06PM 34.1555 -80.7204 41° Northeast  Level FlightAware Approximate
06:07PM 34.1887 -80.6854 41° Northeast  Level FlightAware Approximate
06:08PM 34.2218 -80.6503 41° Northeast  Level FlightAware Approximate
06:09PM 34.2550 -80.6152 41° Northeast  Level FlightAware Approximate
06:10PM 34.2881 -80.5801 41° Northeast  Level FlightAware Approximate
06:11PM 34.3213 -80.5449 41° Northeast  Level FlightAware Approximate
06:12PM 34.3544 -80.5097 41° Northeast  Level FlightAware Approximate
06:13PM 34.3875 -80.4745 41° Northeast  Level FlightAware Approximate
06:14PM 34.4206 -80.4392 41° Northeast  Level FlightAware Approximate
06:15PM 34.4537 -80.4040 41° Northeast  Level FlightAware Approximate
06:16PM 34.4868 -80.3687 41° Northeast  Level FlightAware Approximate
06:17PM 34.5199 -80.3334 41° Northeast  Level FlightAware Approximate
06:18PM 34.5530 -80.2980 41° Northeast  Level FlightAware Approximate
06:19PM 34.5853 -80.2617 44° Northeast  Level FlightAware Approximate
06:20PM 34.6171 -80.2246 44° Northeast  Level FlightAware Approximate
06:21PM 34.6489 -80.1875 44° Northeast  Level FlightAware Approximate
06:22PM 34.6807 -80.1505 44° Northeast  Level FlightAware Approximate
06:23PM 34.7125 -80.1133 44° Northeast  Level FlightAware Approximate
06:24PM 34.7443 -80.0762 44° Northeast  Level FlightAware Approximate
06:25PM 34.7776 -80.0413 33° Northeast  Level FlightAware Approximate
06:26PM 34.8144 -80.0118 33° Northeast  Level FlightAware Approximate
06:27PM 34.8511 -79.9821 43° Northeast  Level FlightAware Approximate
06:28PM 34.8833 -79.9455 43° Northeast  Level FlightAware Approximate
06:29PM 34.9155 -79.9088 43° Northeast  Level FlightAware Approximate
06:30PM 34.9477 -79.8721 43° Northeast  Level FlightAware Approximate
06:31PM 34.9817 -79.8334 43° Northeast  Level FlightAware Approximate
06:32PM 35.0157 -79.7946 43° Northeast  Level FlightAware Approximate
06:33PM 35.0496 -79.7558 43° Northeast  Level FlightAware Approximate
06:34PM 35.0835 -79.7170 43° Northeast  Level FlightAware Approximate
06:35PM 35.1175 -79.6781 43° Northeast  Level FlightAware Approximate
06:36PM 35.1514 -79.6392 43° Northeast  Level FlightAware Approximate
06:36PM 35.2939 -79.5414 31° Northeast 174 200 5,000  Level Washington Center
06:37PM 35.1853 -79.6002 43° Northeast  Level FlightAware Approximate
06:37PM 35.3217 -79.5200 32° Northeast 170 196 5,000  Level Washington Center
06:38PM 35.2226 -79.5668 31° Northeast  Level FlightAware Approximate
06:38PM 35.3644 -79.4914 29° Northeast 171 197 5,000  Level Washington Center
06:39PM 35.2625 -79.5376 31° Northeast  Level FlightAware Approximate
06:39PM 35.4050 -79.4603 32° Northeast 170 196 5,000  Level Washington Center
06:40PM 35.3024 -79.5084 31° Northeast  Level FlightAware Approximate
06:40PM 35.4475 -79.4317 29° Northeast 175 201 5,000  Level Washington Center
06:41PM 35.3423 -79.4791 31° Northeast  Level FlightAware Approximate
06:41PM 35.4861 -79.4031 31° Northeast 175 201 5,000  Level Washington Center
06:42PM 35.3822 -79.4498 31° Northeast  Level FlightAware Approximate
06:42PM 35.5228 -79.3614 43° Northeast 171 197 5,000  Level Washington Center
06:43PM 35.5517 -79.3117 54° Northeast 168 193 5,000  Level Washington Center
06:44PM 35.5700 -79.2589 67° East 162 186 5,000  Level Washington Center
06:45PM 35.5819 -79.2058 75° East 167 192 5,000  Level Washington Center
06:46PM 35.5964 -79.1428 74° East 164 189 5,000 -180 Level Washington Center
06:47PM 35.6103 -79.0922 71° East 162 186 4,700 -480 Descending Washington Center
06:48PM 35.6247 -79.0289 74° East 170 196 4,100 -420 Descending Washington Center
06:49PM 35.6322 -78.9858 78° East 163 188 4,000 -60 Descending Washington Center
06:50PM 35.6461 -78.9328 72° East 164 189 4,000  Level Washington Center
06:51PM 35.6606 -78.8719 74° East 166 191 4,000  Level Washington Center
06:52PM 35.6722 -78.8239 73° East 164 189 4,000 -60 Level Washington Center
06:53PM 35.6861 -78.7681 73° East 167 192 3,900 -420 Descending Washington Center
06:54PM 35.7289 -78.7314 35° Northeast 182 209 3,200 -780 Descending Washington Center
06:55PM 35.7772 -78.7181 13° North 184 212 2,400 -720 Descending Washington Center
06:56PM 35.8228 -78.7275 350° North 167 192 1,800 -720 Descending Washington Center
06:57PM 35.8472 -78.7542 319° Northwest 107 123 1,000 -840 Descending Washington Center